WetterOnline ( https://www.wetteronline.de )

Wetter aktuell Zingst

Aktuelles Wetter: Barth (7m)

6-stündlich | Neueste Meldungen
Ortszeit Temperatur Wetter
Fr, 03.02. 7:00 6.5° C bewölkt
Fr, 03.02. 1:00 0.8° C bedeckt
Do, 02.02. 19:00 -1.5° C bedeckt
Do, 02.02. 13:00 2.9° C fast wolkenlos
Do, 02.02. 7:00 2.9° C bedeckt
Do, 02.02. 1:00 4.5° C Sprühregen
Mi, 01.02. 19:00 5.1° C bewölkt
Mi, 01.02. 13:00 4.8° C fast wolkenlos
Ortszeit Temperatur Wetter
Fr, 03.02. 8:00 6.8° C bewölkt
Fr, 03.02. 7:40 6.7° C leichter Regen
Fr, 03.02. 7:30 6.8° C bedeckt
Fr, 03.02. 7:20 6.8° C Dunst
Fr, 03.02. 7:10 6.7° C Dunst
Fr, 03.02. 7:00 6.5° C bewölkt
Fr, 03.02. 6:50 6.5° C Dunst
Fr, 03.02. 6:30 4.4° C leichter Regen
Fr, 03.02. 6:00 3.9° C leichter Regen
Fr, 03.02. 5:30 2.9° C leichter Regen
Fr, 03.02. 5:00 2.3° C leichter Regen
Ortszeit Relative Feuchte Sichtweite
Fr, 03.02. 7:00 97% 4.0 km
Fr, 03.02. 1:00 89% 45 km
Do, 02.02. 19:00 94% 45 km
Do, 02.02. 13:00 72% 65 km
Do, 02.02. 7:00 80% 45 km
Do, 02.02. 1:00 92% 5.0 km
Mi, 01.02. 19:00 85% 20 km
Mi, 01.02. 13:00 82% 35 km
Ortszeit Relative Feuchte Sichtweite
Fr, 03.02. 8:00 96% 5.0 km
Fr, 03.02. 7:40 97% -
Fr, 03.02. 7:30 96% 5.0 km
Fr, 03.02. 7:20 96% -
Fr, 03.02. 7:10 97% -
Fr, 03.02. 7:00 97% 4.0 km
Fr, 03.02. 6:50 97% -
Fr, 03.02. 6:30 99% 4.2 km
Fr, 03.02. 6:00 98% 2.4 km
Fr, 03.02. 5:30 97% 13 km
Fr, 03.02. 5:00 98% 6 km
Ortszeit Niederschlagsmenge Niederschlagsart
Fr, 03.02. 7:00 5 l/m2 in 12 Std. Schnee, Regen
Fr, 03.02. 1:00 0.0 l/m2 in 6 Std. -
Do, 02.02. 19:00 0.1 l/m2 in 12 Std. -
Do, 02.02. 13:00 0.1 l/m2 in 6 Std. Schnee
Do, 02.02. 7:00 3 l/m2 in 12 Std. Regen
Do, 02.02. 1:00 3 l/m2 in 6 Std. Regen
Mi, 01.02. 19:00 4 l/m2 in 12 Std. Regen
Mi, 01.02. 13:00 1 l/m2 in 6 Std. Regen
Ortszeit Niederschlagsmenge Niederschlagsart
Fr, 03.02. 8:00 0.1 l/m2 in 1 Std. Regen
Fr, 03.02. 7:40 keine Meldung -
Fr, 03.02. 7:30 <0.05 l/m2 in 30 Min -
Fr, 03.02. 7:20 keine Meldung -
Fr, 03.02. 7:10 keine Meldung -
Fr, 03.02. 7:00 0.4 l/m2 in 1 Std. Schnee, Regen
Fr, 03.02. 6:50 keine Meldung -
Fr, 03.02. 6:30 0.3 l/m2 in 30 Min -
Fr, 03.02. 6:00 0.9 l/m2 in 1 Std. Regen
Fr, 03.02. 5:30 0.4 l/m2 in 30 Min -
Fr, 03.02. 5:00 1.1 l/m2 in 1 Std. Regen
Ortszeit Stärke Spitze Richtung
km/h Bft. km/h Grad Sektor
Fr, 03.02. 7:00 31 5 50 260° W
Fr, 03.02. 1:00 13 3 19 160° S
Do, 02.02. 19:00 7 2 29 220° SW
Do, 02.02. 13:00 22 4 43 310° NW
Do, 02.02. 7:00 19 3 72 310° NW
Do, 02.02. 1:00 41 6 81 290° W
Mi, 01.02. 19:00 37 5 65 260° W
Mi, 01.02. 13:00 32 5 79 260° W
Ortszeit Stärke Spitze Richtung
km/h Bft. km/h Grad Sektor
Fr, 03.02. 8:00 39 6 57 260° W
Fr, 03.02. 7:40 37 5 - 260° W
Fr, 03.02. 7:30 39 6 57 260° W
Fr, 03.02. 7:20 39 6 - 260° W
Fr, 03.02. 7:10 39 6 - 250° W
Fr, 03.02. 7:00 31 5 50 260° W
Fr, 03.02. 6:50 31 5 - 260° W
Fr, 03.02. 6:30 22 4 36 230° SW
Fr, 03.02. 6:00 25 4 36 220° SW
Fr, 03.02. 5:30 22 4 36 210° SW
Fr, 03.02. 5:00 18 3 36 200° S
Ortszeit Untergrenze Bedeckung Gattung
total tief tief mittel hoch
Fr, 03.02. 7:00 150 m 7/8 7/8 - - -
Fr, 03.02. 1:00 1320 m 8/8 8/8 - - -
Do, 02.02. 19:00 5100 m 8/8 8/8 - - -
Do, 02.02. 13:00 570 m 1/8 1/8 - - -
Do, 02.02. 7:00 600 m 8/8 8/8 - - -
Do, 02.02. 1:00 270 m 8/8 8/8 - - -
Mi, 01.02. 19:00 1320 m 7/8 7/8 - - -
Mi, 01.02. 13:00 960 m 1/8 1/8 - - -
Ortszeit Bedeckungsgrad in Achtel und Wolkenuntergrenze
Fr, 03.02. 8:00 7(180m)
Fr, 03.02. 7:40 7
Fr, 03.02. 7:30 7(180m) 8(270m)
Fr, 03.02. 7:20 7(180m) 8(270m)
Fr, 03.02. 7:10 7
Fr, 03.02. 7:00 7(150m)
Fr, 03.02. 6:50 7(150m)
Fr, 03.02. 6:30 8(120m)
Fr, 03.02. 6:00 8(150m)
Fr, 03.02. 5:30 7(180m)
Fr, 03.02. 5:00 7(180m) 8(270m)
Ortszeit Luftdruck NN (hPa) Tendenz (hPa in 3 Std.)
Fr, 03.02. 7:00 1008 - 5,0
Fr, 03.02. 1:00 1018 - 2,8
Do, 02.02. 19:00 1021 + 1,8
Do, 02.02. 13:00 1017 + 3,1
Do, 02.02. 7:00 1010 + 3,5
Do, 02.02. 1:00 1002 + 0,5
Mi, 01.02. 19:00 1003 + 0,2
Mi, 01.02. 13:00 1003 - 0,8
Ortszeit Luftdruck NN (hPa) Tendenz (hPa in 3 Std.)
Fr, 03.02. 8:00 1006 - 4,8
Fr, 03.02. 7:40 1006 keine Meldung
Fr, 03.02. 7:30 1007 - 4,8
Fr, 03.02. 7:20 1007 keine Meldung
Fr, 03.02. 7:10 1007 keine Meldung
Fr, 03.02. 7:00 1008 - 5,0
Fr, 03.02. 6:50 1008 keine Meldung
Fr, 03.02. 6:30 1008 - 5,4
Fr, 03.02. 6:00 1009 - 5,7
Fr, 03.02. 5:30 1010 - 5,7
Fr, 03.02. 5:00 1011 - 5,7
Ortszeit Schneehöhe (cm)
Fr, 03.02. 7:00 0
Fr, 03.02. 1:00 0
Do, 02.02. 19:00 0
Do, 02.02. 13:00 0
Do, 02.02. 7:00 0
Do, 02.02. 1:00 0
Mi, 01.02. 19:00 0
Mi, 01.02. 13:00 0
Ortszeit Schneehöhe (cm)
Fr, 03.02. 8:00 0
Fr, 03.02. 7:40 0
Fr, 03.02. 7:30 0
Fr, 03.02. 7:20 0
Fr, 03.02. 7:10 0
Fr, 03.02. 7:00 0
Fr, 03.02. 6:50 0
Fr, 03.02. 6:30 0
Fr, 03.02. 6:00 0
Fr, 03.02. 5:30 0
Fr, 03.02. 5:00 0
Link zu dieser Seite / Seite empfehlen

Das Wetter in ...